sensor_id;sensor_type;location;lat;lon;timestamp;P1;durP1;ratioP1;P2;durP2;ratioP2
77432;SDS011;66752;48.576;8.876;2023-02-28T00:00:50;4.93;;;2.05;;
77432;SDS011;66752;48.576;8.876;2023-02-28T00:03:16;5.13;;;2.65;;
77432;SDS011;66752;48.576;8.876;2023-02-28T00:05:42;4.97;;;2.13;;
77432;SDS011;66752;48.576;8.876;2023-02-28T00:08:09;5.47;;;2.28;;
77432;SDS011;66752;48.576;8.876;2023-02-28T00:10:35;4.68;;;2.33;;
77432;SDS011;66752;48.576;8.876;2023-02-28T00:13:02;5.15;;;2.20;;
77432;SDS011;66752;48.576;8.876;2023-02-28T00:15:29;5.03;;;2.08;;
77432;SDS011;66752;48.576;8.876;2023-02-28T00:17:55;4.97;;;2.30;;
77432;SDS011;66752;48.576;8.876;2023-02-28T00:20:21;5.38;;;2.30;;
77432;SDS011;66752;48.576;8.876;2023-02-28T00:22:48;5.75;;;2.28;;
77432;SDS011;66752;48.576;8.876;2023-02-28T00:25:15;6.32;;;2.60;;
77432;SDS011;66752;48.576;8.876;2023-02-28T00:27:41;4.05;;;2.28;;
77432;SDS011;66752;48.576;8.876;2023-02-28T00:30:09;5.93;;;2.38;;
77432;SDS011;66752;48.576;8.876;2023-02-28T00:32:35;7.95;;;2.60;;
77432;SDS011;66752;48.576;8.876;2023-02-28T00:35:02;5.50;;;2.30;;
77432;SDS011;66752;48.576;8.876;2023-02-28T00:37:28;6.35;;;2.45;;
77432;SDS011;66752;48.576;8.876;2023-02-28T00:39:54;4.93;;;2.35;;
77432;SDS011;66752;48.576;8.876;2023-02-28T00:42:20;4.45;;;2.15;;
77432;SDS011;66752;48.576;8.876;2023-02-28T00:44:46;7.40;;;2.40;;
77432;SDS011;66752;48.576;8.876;2023-02-28T00:47:12;5.38;;;2.50;;
77432;SDS011;66752;48.576;8.876;2023-02-28T00:49:38;6.78;;;2.95;;
77432;SDS011;66752;48.576;8.876;2023-02-28T00:52:03;5.63;;;2.50;;
77432;SDS011;66752;48.576;8.876;2023-02-28T00:54:29;8.25;;;3.08;;
77432;SDS011;66752;48.576;8.876;2023-02-28T00:56:55;6.95;;;2.40;;
77432;SDS011;66752;48.576;8.876;2023-02-28T00:59:21;6.78;;;2.70;;
77432;SDS011;66752;48.576;8.876;2023-02-28T01:01:47;6.55;;;2.33;;
77432;SDS011;66752;48.576;8.876;2023-02-28T01:04:14;4.97;;;2.38;;
77432;SDS011;66752;48.576;8.876;2023-02-28T01:06:40;4.68;;;2.42;;
77432;SDS011;66752;48.576;8.876;2023-02-28T01:09:07;6.80;;;2.47;;
77432;SDS011;66752;48.576;8.876;2023-02-28T01:11:33;5.28;;;2.85;;
77432;SDS011;66752;48.576;8.876;2023-02-28T01:13:59;6.18;;;2.70;;
77432;SDS011;66752;48.576;8.876;2023-02-28T01:16:25;4.68;;;2.38;;
77432;SDS011;66752;48.576;8.876;2023-02-28T01:18:51;4.78;;;2.58;;
77432;SDS011;66752;48.576;8.876;2023-02-28T01:21:18;5.80;;;2.55;;
77432;SDS011;66752;48.576;8.876;2023-02-28T01:23:44;6.78;;;3.05;;
77432;SDS011;66752;48.576;8.876;2023-02-28T01:26:13;5.95;;;2.55;;
77432;SDS011;66752;48.576;8.876;2023-02-28T01:28:39;7.45;;;2.30;;
77432;SDS011;66752;48.576;8.876;2023-02-28T01:31:05;6.68;;;2.40;;
77432;SDS011;66752;48.576;8.876;2023-02-28T01:33:31;5.53;;;2.70;;
77432;SDS011;66752;48.576;8.876;2023-02-28T01:35:58;5.68;;;2.50;;
77432;SDS011;66752;48.576;8.876;2023-02-28T01:38:24;5.95;;;2.80;;
77432;SDS011;66752;48.576;8.876;2023-02-28T01:40:50;5.47;;;2.40;;
77432;SDS011;66752;48.576;8.876;2023-02-28T01:43:19;5.28;;;2.55;;
77432;SDS011;66752;48.576;8.876;2023-02-28T01:45:45;4.72;;;2.20;;
77432;SDS011;66752;48.576;8.876;2023-02-28T01:48:11;6.93;;;2.85;;
77432;SDS011;66752;48.576;8.876;2023-02-28T01:50:38;5.22;;;2.50;;
77432;SDS011;66752;48.576;8.876;2023-02-28T01:53:06;6.97;;;2.97;;
77432;SDS011;66752;48.576;8.876;2023-02-28T01:55:33;6.65;;;2.72;;
77432;SDS011;66752;48.576;8.876;2023-02-28T01:58:01;5.03;;;2.67;;
77432;SDS011;66752;48.576;8.876;2023-02-28T02:00:28;4.63;;;2.40;;
77432;SDS011;66752;48.576;8.876;2023-02-28T02:03:05;6.55;;;1.98;;
77432;SDS011;66752;48.576;8.876;2023-02-28T02:05:32;4.43;;;2.20;;
77432;SDS011;66752;48.576;8.876;2023-02-28T02:08:03;5.38;;;2.45;;
77432;SDS011;66752;48.576;8.876;2023-02-28T02:15:35;5.32;;;2.25;;
77432;SDS011;66752;48.576;8.876;2023-02-28T02:18:13;7.00;;;2.85;;
77432;SDS011;66752;48.576;8.876;2023-02-28T02:23:24;5.28;;;2.28;;
77432;SDS011;66752;48.576;8.876;2023-02-28T02:26:01;6.05;;;2.78;;
77432;SDS011;66752;48.576;8.876;2023-02-28T02:31:29;7.50;;;2.28;;
77432;SDS011;66752;48.576;8.876;2023-02-28T02:36:48;4.18;;;2.30;;
77432;SDS011;66752;48.576;8.876;2023-02-28T02:39:24;4.90;;;2.70;;
77432;SDS011;66752;48.576;8.876;2023-02-28T02:41:54;6.25;;;3.00;;
77432;SDS011;66752;48.576;8.876;2023-02-28T02:44:25;5.25;;;2.47;;
77432;SDS011;66752;48.576;8.876;2023-02-28T02:47:00;5.25;;;3.00;;
77432;SDS011;66752;48.576;8.876;2023-02-28T02:49:30;7.07;;;2.88;;
77432;SDS011;66752;48.576;8.876;2023-02-28T02:51:56;6.32;;;2.63;;
77432;SDS011;66752;48.576;8.876;2023-02-28T02:54:24;6.03;;;3.10;;
77432;SDS011;66752;48.576;8.876;2023-02-28T02:56:53;6.10;;;2.80;;
77432;SDS011;66752;48.576;8.876;2023-02-28T02:59:21;5.10;;;2.40;;
77432;SDS011;66752;48.576;8.876;2023-02-28T03:01:49;7.20;;;3.15;;
77432;SDS011;66752;48.576;8.876;2023-02-28T03:04:16;5.13;;;2.80;;
77432;SDS011;66752;48.576;8.876;2023-02-28T03:06:43;6.10;;;2.88;;
77432;SDS011;66752;48.576;8.876;2023-02-28T03:09:09;5.47;;;2.85;;
77432;SDS011;66752;48.576;8.876;2023-02-28T03:11:36;5.43;;;3.00;;
77432;SDS011;66752;48.576;8.876;2023-02-28T03:22:23;5.45;;;2.83;;
77432;SDS011;66752;48.576;8.876;2023-02-28T03:24:59;5.63;;;2.65;;
77432;SDS011;66752;48.576;8.876;2023-02-28T03:27:29;6.05;;;2.78;;
77432;SDS011;66752;48.576;8.876;2023-02-28T03:30:44;5.97;;;3.15;;
77432;SDS011;66752;48.576;8.876;2023-02-28T03:32:43;6.10;;;3.20;;
77432;SDS011;66752;48.576;8.876;2023-02-28T03:35:12;5.80;;;3.28;;
77432;SDS011;66752;48.576;8.876;2023-02-28T03:37:40;5.45;;;2.90;;
77432;SDS011;66752;48.576;8.876;2023-02-28T03:40:15;8.20;;;3.33;;
77432;SDS011;66752;48.576;8.876;2023-02-28T03:42:43;7.07;;;3.08;;
77432;SDS011;66752;48.576;8.876;2023-02-28T03:45:14;5.22;;;3.28;;
77432;SDS011;66752;48.576;8.876;2023-02-28T03:47:41;6.50;;;3.38;;
77432;SDS011;66752;48.576;8.876;2023-02-28T03:50:13;6.18;;;3.33;;
77432;SDS011;66752;48.576;8.876;2023-02-28T03:52:42;6.35;;;3.50;;
77432;SDS011;66752;48.576;8.876;2023-02-28T03:55:10;6.93;;;3.55;;
77432;SDS011;66752;48.576;8.876;2023-02-28T03:57:40;6.97;;;3.20;;
77432;SDS011;66752;48.576;8.876;2023-02-28T04:00:10;8.05;;;3.40;;
77432;SDS011;66752;48.576;8.876;2023-02-28T04:02:38;6.35;;;3.45;;
77432;SDS011;66752;48.576;8.876;2023-02-28T04:05:04;8.18;;;3.42;;
77432;SDS011;66752;48.576;8.876;2023-02-28T04:07:30;7.00;;;3.10;;
77432;SDS011;66752;48.576;8.876;2023-02-28T04:09:57;8.00;;;3.60;;
77432;SDS011;66752;48.576;8.876;2023-02-28T04:12:22;6.07;;;3.28;;
77432;SDS011;66752;48.576;8.876;2023-02-28T04:14:49;7.03;;;3.60;;
77432;SDS011;66752;48.576;8.876;2023-02-28T04:17:15;6.75;;;3.42;;
77432;SDS011;66752;48.576;8.876;2023-02-28T04:19:41;6.78;;;3.63;;
77432;SDS011;66752;48.576;8.876;2023-02-28T04:22:07;6.75;;;3.28;;
77432;SDS011;66752;48.576;8.876;2023-02-28T04:24:33;6.65;;;4.03;;
77432;SDS011;66752;48.576;8.876;2023-02-28T04:27:00;6.40;;;3.17;;
77432;SDS011;66752;48.576;8.876;2023-02-28T04:29:27;6.75;;;3.53;;
77432;SDS011;66752;48.576;8.876;2023-02-28T04:31:54;5.88;;;3.08;;
77432;SDS011;66752;48.576;8.876;2023-02-28T04:34:23;7.75;;;3.63;;
77432;SDS011;66752;48.576;8.876;2023-02-28T04:36:49;8.63;;;3.80;;
77432;SDS011;66752;48.576;8.876;2023-02-28T04:39:18;8.57;;;3.53;;
77432;SDS011;66752;48.576;8.876;2023-02-28T04:41:44;7.15;;;3.28;;
77432;SDS011;66752;48.576;8.876;2023-02-28T04:44:11;8.98;;;3.80;;
77432;SDS011;66752;48.576;8.876;2023-02-28T04:46:37;9.00;;;4.60;;
77432;SDS011;66752;48.576;8.876;2023-02-28T04:49:03;6.68;;;3.50;;
77432;SDS011;66752;48.576;8.876;2023-02-28T04:51:29;8.32;;;4.30;;
77432;SDS011;66752;48.576;8.876;2023-02-28T04:53:55;7.28;;;4.03;;
77432;SDS011;66752;48.576;8.876;2023-02-28T04:56:21;7.22;;;4.22;;
77432;SDS011;66752;48.576;8.876;2023-02-28T04:58:47;8.93;;;5.22;;
77432;SDS011;66752;48.576;8.876;2023-02-28T05:01:26;7.85;;;4.00;;
77432;SDS011;66752;48.576;8.876;2023-02-28T05:03:53;7.55;;;4.20;;
77432;SDS011;66752;48.576;8.876;2023-02-28T05:06:22;5.82;;;3.38;;
77432;SDS011;66752;48.576;8.876;2023-02-28T05:08:51;7.95;;;3.90;;
77432;SDS011;66752;48.576;8.876;2023-02-28T05:11:19;10.02;;;4.15;;
77432;SDS011;66752;48.576;8.876;2023-02-28T05:13:45;8.95;;;4.60;;
77432;SDS011;66752;48.576;8.876;2023-02-28T05:16:11;8.15;;;4.18;;
77432;SDS011;66752;48.576;8.876;2023-02-28T05:18:37;7.15;;;4.47;;
77432;SDS011;66752;48.576;8.876;2023-02-28T05:21:03;8.18;;;4.20;;
77432;SDS011;66752;48.576;8.876;2023-02-28T05:23:29;5.80;;;3.45;;
77432;SDS011;66752;48.576;8.876;2023-02-28T05:25:55;8.63;;;4.60;;
77432;SDS011;66752;48.576;8.876;2023-02-28T05:28:21;7.60;;;4.35;;
77432;SDS011;66752;48.576;8.876;2023-02-28T05:30:47;7.90;;;3.83;;
77432;SDS011;66752;48.576;8.876;2023-02-28T05:33:13;7.70;;;4.45;;
77432;SDS011;66752;48.576;8.876;2023-02-28T05:35:40;10.07;;;5.00;;
77432;SDS011;66752;48.576;8.876;2023-02-28T05:38:07;8.18;;;4.50;;
77432;SDS011;66752;48.576;8.876;2023-02-28T05:40:33;7.65;;;4.32;;
77432;SDS011;66752;48.576;8.876;2023-02-28T05:42:59;6.18;;;3.88;;
77432;SDS011;66752;48.576;8.876;2023-02-28T05:45:25;7.68;;;4.35;;
77432;SDS011;66752;48.576;8.876;2023-02-28T05:47:54;7.85;;;4.13;;
77432;SDS011;66752;48.576;8.876;2023-02-28T05:50:20;7.80;;;4.32;;
77432;SDS011;66752;48.576;8.876;2023-02-28T05:52:50;5.78;;;3.60;;
77432;SDS011;66752;48.576;8.876;2023-02-28T05:55:16;7.63;;;4.15;;
77432;SDS011;66752;48.576;8.876;2023-02-28T05:57:42;7.63;;;5.15;;
77432;SDS011;66752;48.576;8.876;2023-02-28T06:00:08;9.57;;;4.38;;
77432;SDS011;66752;48.576;8.876;2023-02-28T06:02:34;8.80;;;4.90;;
77432;SDS011;66752;48.576;8.876;2023-02-28T06:05:00;8.77;;;4.47;;
77432;SDS011;66752;48.576;8.876;2023-02-28T06:07:26;9.82;;;5.13;;
77432;SDS011;66752;48.576;8.876;2023-02-28T06:09:52;8.30;;;4.57;;
77432;SDS011;66752;48.576;8.876;2023-02-28T06:12:18;10.27;;;5.10;;
77432;SDS011;66752;48.576;8.876;2023-02-28T06:14:44;8.73;;;5.15;;
77432;SDS011;66752;48.576;8.876;2023-02-28T06:17:10;8.38;;;4.85;;
77432;SDS011;66752;48.576;8.876;2023-02-28T06:19:37;8.23;;;4.95;;
77432;SDS011;66752;48.576;8.876;2023-02-28T06:24:29;7.28;;;3.75;;
77432;SDS011;66752;48.576;8.876;2023-02-28T06:26:56;8.15;;;4.40;;
77432;SDS011;66752;48.576;8.876;2023-02-28T06:29:24;10.32;;;5.57;;
77432;SDS011;66752;48.576;8.876;2023-02-28T06:31:50;8.55;;;4.68;;
77432;SDS011;66752;48.576;8.876;2023-02-28T06:34:16;9.88;;;4.70;;
77432;SDS011;66752;48.576;8.876;2023-02-28T06:36:42;8.55;;;4.75;;
77432;SDS011;66752;48.576;8.876;2023-02-28T06:39:08;12.15;;;5.03;;
77432;SDS011;66752;48.576;8.876;2023-02-28T06:41:35;9.50;;;5.35;;
77432;SDS011;66752;48.576;8.876;2023-02-28T06:44:10;9.55;;;5.18;;
77432;SDS011;66752;48.576;8.876;2023-02-28T06:46:38;10.27;;;5.25;;
77432;SDS011;66752;48.576;8.876;2023-02-28T06:49:04;10.13;;;5.63;;
77432;SDS011;66752;48.576;8.876;2023-02-28T06:51:33;9.73;;;6.38;;
77432;SDS011;66752;48.576;8.876;2023-02-28T06:53:59;27.58;;;14.15;;
77432;SDS011;66752;48.576;8.876;2023-02-28T06:56:25;13.43;;;7.82;;
77432;SDS011;66752;48.576;8.876;2023-02-28T06:58:51;10.60;;;4.90;;
77432;SDS011;66752;48.576;8.876;2023-02-28T07:01:18;8.45;;;5.68;;
77432;SDS011;66752;48.576;8.876;2023-02-28T07:03:44;10.27;;;6.55;;
77432;SDS011;66752;48.576;8.876;2023-02-28T07:06:10;11.85;;;6.07;;
77432;SDS011;66752;48.576;8.876;2023-02-28T07:08:37;9.68;;;5.35;;
77432;SDS011;66752;48.576;8.876;2023-02-28T07:11:04;11.45;;;5.32;;
77432;SDS011;66752;48.576;8.876;2023-02-28T07:13:30;9.82;;;5.35;;
77432;SDS011;66752;48.576;8.876;2023-02-28T07:15:56;9.90;;;5.60;;
77432;SDS011;66752;48.576;8.876;2023-02-28T07:18:22;9.52;;;5.50;;
77432;SDS011;66752;48.576;8.876;2023-02-28T07:20:48;11.70;;;7.32;;
77432;SDS011;66752;48.576;8.876;2023-02-28T07:23:14;16.83;;;8.95;;
77432;SDS011;66752;48.576;8.876;2023-02-28T07:25:40;12.23;;;6.55;;
77432;SDS011;66752;48.576;8.876;2023-02-28T07:28:06;15.50;;;7.88;;
77432;SDS011;66752;48.576;8.876;2023-02-28T07:30:32;21.05;;;12.10;;
77432;SDS011;66752;48.576;8.876;2023-02-28T07:32:58;15.73;;;9.68;;
77432;SDS011;66752;48.576;8.876;2023-02-28T07:35:24;15.10;;;9.02;;
77432;SDS011;66752;48.576;8.876;2023-02-28T07:37:50;11.50;;;6.40;;
77432;SDS011;66752;48.576;8.876;2023-02-28T07:40:16;9.15;;;5.53;;
77432;SDS011;66752;48.576;8.876;2023-02-28T07:42:43;9.13;;;6.15;;
77432;SDS011;66752;48.576;8.876;2023-02-28T07:45:10;10.90;;;5.78;;
77432;SDS011;66752;48.576;8.876;2023-02-28T07:47:37;11.73;;;5.85;;
77432;SDS011;66752;48.576;8.876;2023-02-28T07:50:04;10.27;;;6.38;;
77432;SDS011;66752;48.576;8.876;2023-02-28T07:52:30;10.52;;;5.32;;
77432;SDS011;66752;48.576;8.876;2023-02-28T07:54:57;12.65;;;6.65;;
77432;SDS011;66752;48.576;8.876;2023-02-28T07:57:23;11.18;;;6.15;;
77432;SDS011;66752;48.576;8.876;2023-02-28T07:59:49;11.23;;;7.10;;
77432;SDS011;66752;48.576;8.876;2023-02-28T08:02:15;12.45;;;7.20;;
77432;SDS011;66752;48.576;8.876;2023-02-28T08:04:42;11.73;;;6.97;;
77432;SDS011;66752;48.576;8.876;2023-02-28T08:07:08;15.57;;;9.65;;
77432;SDS011;66752;48.576;8.876;2023-02-28T08:09:38;15.00;;;7.35;;
77432;SDS011;66752;48.576;8.876;2023-02-28T08:12:04;11.05;;;6.00;;
77432;SDS011;66752;48.576;8.876;2023-02-28T08:14:30;9.95;;;5.93;;
77432;SDS011;66752;48.576;8.876;2023-02-28T08:16:56;12.90;;;6.28;;
77432;SDS011;66752;48.576;8.876;2023-02-28T08:19:22;12.05;;;6.22;;
77432;SDS011;66752;48.576;8.876;2023-02-28T08:21:48;11.75;;;6.10;;
77432;SDS011;66752;48.576;8.876;2023-02-28T08:24:14;12.13;;;6.78;;
77432;SDS011;66752;48.576;8.876;2023-02-28T08:26:39;12.25;;;7.13;;
77432;SDS011;66752;48.576;8.876;2023-02-28T08:29:05;12.95;;;8.48;;
77432;SDS011;66752;48.576;8.876;2023-02-28T08:31:31;13.43;;;7.07;;
77432;SDS011;66752;48.576;8.876;2023-02-28T08:33:57;13.40;;;7.55;;
77432;SDS011;66752;48.576;8.876;2023-02-28T08:36:24;11.98;;;6.95;;
77432;SDS011;66752;48.576;8.876;2023-02-28T08:38:51;16.08;;;8.38;;
77432;SDS011;66752;48.576;8.876;2023-02-28T08:41:17;11.32;;;6.75;;
77432;SDS011;66752;48.576;8.876;2023-02-28T08:43:43;10.80;;;5.95;;
77432;SDS011;66752;48.576;8.876;2023-02-28T08:46:11;14.20;;;7.43;;
77432;SDS011;66752;48.576;8.876;2023-02-28T08:48:38;10.48;;;6.30;;
77432;SDS011;66752;48.576;8.876;2023-02-28T08:51:05;9.80;;;5.72;;
77432;SDS011;66752;48.576;8.876;2023-02-28T08:53:31;11.57;;;5.97;;
77432;SDS011;66752;48.576;8.876;2023-02-28T08:58:23;11.63;;;6.80;;
77432;SDS011;66752;48.576;8.876;2023-02-28T09:00:50;10.20;;;5.90;;
77432;SDS011;66752;48.576;8.876;2023-02-28T09:03:16;11.50;;;7.57;;
77432;SDS011;66752;48.576;8.876;2023-02-28T09:05:51;10.18;;;6.28;;
77432;SDS011;66752;48.576;8.876;2023-02-28T09:08:17;10.52;;;6.75;;
77432;SDS011;66752;48.576;8.876;2023-02-28T09:10:43;12.63;;;7.30;;
77432;SDS011;66752;48.576;8.876;2023-02-28T09:13:09;12.57;;;7.13;;
77432;SDS011;66752;48.576;8.876;2023-02-28T09:15:36;14.20;;;6.95;;
77432;SDS011;66752;48.576;8.876;2023-02-28T09:18:02;13.80;;;8.00;;
77432;SDS011;66752;48.576;8.876;2023-02-28T09:20:28;11.73;;;6.82;;
77432;SDS011;66752;48.576;8.876;2023-02-28T09:22:54;13.27;;;7.80;;
77432;SDS011;66752;48.576;8.876;2023-02-28T09:25:20;14.18;;;7.32;;
77432;SDS011;66752;48.576;8.876;2023-02-28T09:27:46;13.23;;;6.43;;
77432;SDS011;66752;48.576;8.876;2023-02-28T09:30:13;11.35;;;7.78;;
77432;SDS011;66752;48.576;8.876;2023-02-28T09:32:39;11.82;;;7.25;;
77432;SDS011;66752;48.576;8.876;2023-02-28T09:35:06;11.15;;;6.30;;
77432;SDS011;66752;48.576;8.876;2023-02-28T09:37:38;14.98;;;7.65;;
77432;SDS011;66752;48.576;8.876;2023-02-28T09:40:04;15.50;;;8.32;;
77432;SDS011;66752;48.576;8.876;2023-02-28T09:42:31;10.98;;;6.82;;
77432;SDS011;66752;48.576;8.876;2023-02-28T09:45:00;12.13;;;6.43;;
77432;SDS011;66752;48.576;8.876;2023-02-28T09:49:53;13.82;;;7.38;;
77432;SDS011;66752;48.576;8.876;2023-02-28T09:52:24;12.00;;;7.10;;
77432;SDS011;66752;48.576;8.876;2023-02-28T09:54:53;17.15;;;7.68;;
77432;SDS011;66752;48.576;8.876;2023-02-28T10:05:16;12.10;;;7.25;;
77432;SDS011;66752;48.576;8.876;2023-02-28T10:07:51;12.48;;;6.95;;
77432;SDS011;66752;48.576;8.876;2023-02-28T10:10:21;14.18;;;7.85;;
77432;SDS011;66752;48.576;8.876;2023-02-28T10:12:50;14.30;;;7.43;;
77432;SDS011;66752;48.576;8.876;2023-02-28T10:15:18;12.25;;;7.43;;
77432;SDS011;66752;48.576;8.876;2023-02-28T10:17:46;15.65;;;7.97;;
77432;SDS011;66752;48.576;8.876;2023-02-28T10:20:15;12.43;;;6.72;;
77432;SDS011;66752;48.576;8.876;2023-02-28T10:25:25;11.68;;;7.20;;
77432;SDS011;66752;48.576;8.876;2023-02-28T10:30:51;10.95;;;6.75;;
77432;SDS011;66752;48.576;8.876;2023-02-28T10:33:25;10.88;;;6.20;;
77432;SDS011;66752;48.576;8.876;2023-02-28T10:35:52;13.88;;;7.38;;
77432;SDS011;66752;48.576;8.876;2023-02-28T10:38:20;12.10;;;6.28;;
77432;SDS011;66752;48.576;8.876;2023-02-28T10:40:47;11.00;;;6.60;;
77432;SDS011;66752;48.576;8.876;2023-02-28T10:45:39;11.63;;;6.90;;
77432;SDS011;66752;48.576;8.876;2023-02-28T10:55:56;12.95;;;6.53;;
77432;SDS011;66752;48.576;8.876;2023-02-28T10:58:23;13.10;;;7.47;;
77432;SDS011;66752;48.576;8.876;2023-02-28T11:00:50;16.45;;;6.05;;
77432;SDS011;66752;48.576;8.876;2023-02-28T11:03:23;12.63;;;7.15;;
77432;SDS011;66752;48.576;8.876;2023-02-28T11:05:50;11.50;;;5.43;;
77432;SDS011;66752;48.576;8.876;2023-02-28T11:08:16;12.57;;;7.05;;
77432;SDS011;66752;48.576;8.876;2023-02-28T11:10:47;13.60;;;6.78;;
77432;SDS011;66752;48.576;8.876;2023-02-28T11:13:16;13.05;;;7.35;;
77432;SDS011;66752;48.576;8.876;2023-02-28T11:15:46;11.40;;;7.18;;
77432;SDS011;66752;48.576;8.876;2023-02-28T11:18:24;11.70;;;7.03;;
77432;SDS011;66752;48.576;8.876;2023-02-28T11:20:53;11.85;;;6.78;;
77432;SDS011;66752;48.576;8.876;2023-02-28T11:23:19;13.73;;;7.05;;
77432;SDS011;66752;48.576;8.876;2023-02-28T11:25:47;13.38;;;7.10;;
77432;SDS011;66752;48.576;8.876;2023-02-28T11:28:26;11.27;;;6.97;;
77432;SDS011;66752;48.576;8.876;2023-02-28T11:33:28;11.05;;;7.03;;
77432;SDS011;66752;48.576;8.876;2023-02-28T11:38:20;11.65;;;6.10;;
77432;SDS011;66752;48.576;8.876;2023-02-28T11:43:38;10.23;;;6.80;;
77432;SDS011;66752;48.576;8.876;2023-02-28T11:46:10;10.70;;;6.60;;
77432;SDS011;66752;48.576;8.876;2023-02-28T11:48:58;18.98;;;7.55;;
77432;SDS011;66752;48.576;8.876;2023-02-28T11:51:28;11.32;;;6.90;;
77432;SDS011;66752;48.576;8.876;2023-02-28T11:54:03;13.40;;;7.95;;
77432;SDS011;66752;48.576;8.876;2023-02-28T11:59:34;15.52;;;7.20;;
77432;SDS011;66752;48.576;8.876;2023-02-28T12:02:02;11.95;;;7.07;;
77432;SDS011;66752;48.576;8.876;2023-02-28T12:07:25;13.63;;;7.18;;
77432;SDS011;66752;48.576;8.876;2023-02-28T12:12:38;11.65;;;7.18;;
77432;SDS011;66752;48.576;8.876;2023-02-28T12:17:40;14.68;;;6.55;;
77432;SDS011;66752;48.576;8.876;2023-02-28T12:20:23;13.27;;;8.38;;
77432;SDS011;66752;48.576;8.876;2023-02-28T12:23:01;14.15;;;8.40;;
77432;SDS011;66752;48.576;8.876;2023-02-28T12:28:01;14.77;;;8.80;;
77432;SDS011;66752;48.576;8.876;2023-02-28T12:30:31;13.27;;;8.77;;
77432;SDS011;66752;48.576;8.876;2023-02-28T12:33:03;12.35;;;8.23;;
77432;SDS011;66752;48.576;8.876;2023-02-28T12:35:33;12.80;;;8.45;;
77432;SDS011;66752;48.576;8.876;2023-02-28T12:38:04;12.75;;;8.05;;
77432;SDS011;66752;48.576;8.876;2023-02-28T12:43:07;11.48;;;7.47;;
77432;SDS011;66752;48.576;8.876;2023-02-28T12:45:40;14.55;;;7.40;;
77432;SDS011;66752;48.576;8.876;2023-02-28T12:48:08;14.27;;;8.98;;
77432;SDS011;66752;48.576;8.876;2023-02-28T12:50:35;11.55;;;7.07;;
77432;SDS011;66752;48.576;8.876;2023-02-28T12:53:09;11.38;;;6.95;;
77432;SDS011;66752;48.576;8.876;2023-02-28T13:00:38;11.98;;;7.88;;
77432;SDS011;66752;48.576;8.876;2023-02-28T13:03:17;12.27;;;7.82;;
77432;SDS011;66752;48.576;8.876;2023-02-28T13:05:56;11.23;;;8.02;;
77432;SDS011;66752;48.576;8.876;2023-02-28T13:08:42;11.38;;;7.82;;
77432;SDS011;66752;48.576;8.876;2023-02-28T13:14:02;12.27;;;8.68;;
77432;SDS011;66752;48.576;8.876;2023-02-28T13:16:31;13.70;;;9.07;;
77432;SDS011;66752;48.576;8.876;2023-02-28T13:19:16;13.25;;;8.70;;
77432;SDS011;66752;48.576;8.876;2023-02-28T13:21:43;10.77;;;7.20;;
77432;SDS011;66752;48.576;8.876;2023-02-28T13:24:10;13.20;;;7.70;;
77432;SDS011;66752;48.576;8.876;2023-02-28T13:34:25;11.82;;;7.40;;
77432;SDS011;66752;48.576;8.876;2023-02-28T13:36:51;12.68;;;8.80;;
77432;SDS011;66752;48.576;8.876;2023-02-28T13:42:22;12.27;;;8.38;;
77432;SDS011;66752;48.576;8.876;2023-02-28T13:47:31;10.70;;;7.93;;
77432;SDS011;66752;48.576;8.876;2023-02-28T13:52:53;10.60;;;6.40;;
77432;SDS011;66752;48.576;8.876;2023-02-28T13:55:34;10.90;;;6.70;;
77432;SDS011;66752;48.576;8.876;2023-02-28T13:58:10;12.27;;;8.27;;
77432;SDS011;66752;48.576;8.876;2023-02-28T14:00:54;11.90;;;7.55;;
77432;SDS011;66752;48.576;8.876;2023-02-28T14:08:42;13.25;;;7.93;;
77432;SDS011;66752;48.576;8.876;2023-02-28T14:11:23;17.02;;;9.32;;
77432;SDS011;66752;48.576;8.876;2023-02-28T14:13:49;12.90;;;7.93;;
77432;SDS011;66752;48.576;8.876;2023-02-28T14:16:23;13.55;;;9.02;;
77432;SDS011;66752;48.576;8.876;2023-02-28T14:18:55;11.95;;;7.68;;
77432;SDS011;66752;48.576;8.876;2023-02-28T14:31:34;13.55;;;8.15;;
77432;SDS011;66752;48.576;8.876;2023-02-28T14:36:27;11.40;;;7.95;;
77432;SDS011;66752;48.576;8.876;2023-02-28T14:38:58;13.80;;;9.07;;
77432;SDS011;66752;48.576;8.876;2023-02-28T14:41:36;13.60;;;8.35;;
77432;SDS011;66752;48.576;8.876;2023-02-28T14:44:13;13.15;;;8.23;;
77432;SDS011;66752;48.576;8.876;2023-02-28T14:46:39;13.77;;;9.50;;
77432;SDS011;66752;48.576;8.876;2023-02-28T14:49:06;13.18;;;8.23;;
77432;SDS011;66752;48.576;8.876;2023-02-28T14:51:36;15.57;;;10.18;;
77432;SDS011;66752;48.576;8.876;2023-02-28T14:54:02;15.27;;;9.90;;
77432;SDS011;66752;48.576;8.876;2023-02-28T14:56:36;15.18;;;8.70;;
77432;SDS011;66752;48.576;8.876;2023-02-28T15:01:28;15.93;;;8.43;;
77432;SDS011;66752;48.576;8.876;2023-02-28T15:03:57;18.10;;;9.95;;
77432;SDS011;66752;48.576;8.876;2023-02-28T15:06:23;10.85;;;7.82;;
77432;SDS011;66752;48.576;8.876;2023-02-28T15:09:05;18.40;;;8.82;;
77432;SDS011;66752;48.576;8.876;2023-02-28T15:11:32;15.75;;;9.60;;
77432;SDS011;66752;48.576;8.876;2023-02-28T15:13:58;12.18;;;8.45;;
77432;SDS011;66752;48.576;8.876;2023-02-28T15:16:28;14.18;;;8.95;;
77432;SDS011;66752;48.576;8.876;2023-02-28T15:18:57;12.95;;;8.52;;
77432;SDS011;66752;48.576;8.876;2023-02-28T15:21:29;14.57;;;8.98;;
77432;SDS011;66752;48.576;8.876;2023-02-28T15:24:00;14.55;;;8.88;;
77432;SDS011;66752;48.576;8.876;2023-02-28T15:26:41;16.27;;;11.13;;
77432;SDS011;66752;48.576;8.876;2023-02-28T15:29:11;16.48;;;8.77;;
77432;SDS011;66752;48.576;8.876;2023-02-28T15:31:40;10.98;;;7.45;;
77432;SDS011;66752;48.576;8.876;2023-02-28T15:34:21;14.07;;;8.15;;
77432;SDS011;66752;48.576;8.876;2023-02-28T15:39:18;13.23;;;7.47;;
77432;SDS011;66752;48.576;8.876;2023-02-28T15:41:44;14.60;;;8.00;;
77432;SDS011;66752;48.576;8.876;2023-02-28T15:44:43;11.73;;;7.55;;
77432;SDS011;66752;48.576;8.876;2023-02-28T15:47:21;12.45;;;7.65;;
77432;SDS011;66752;48.576;8.876;2023-02-28T15:50:05;9.88;;;6.93;;
77432;SDS011;66752;48.576;8.876;2023-02-28T15:52:34;13.05;;;7.40;;
77432;SDS011;66752;48.576;8.876;2023-02-28T15:57:41;11.75;;;7.13;;
77432;SDS011;66752;48.576;8.876;2023-02-28T16:00:10;17.17;;;7.57;;
77432;SDS011;66752;48.576;8.876;2023-02-28T16:02:37;14.10;;;8.48;;
77432;SDS011;66752;48.576;8.876;2023-02-28T16:07:39;15.30;;;8.85;;
77432;SDS011;66752;48.576;8.876;2023-02-28T16:10:05;13.55;;;7.45;;
77432;SDS011;66752;48.576;8.876;2023-02-28T16:12:33;12.35;;;8.48;;
77432;SDS011;66752;48.576;8.876;2023-02-28T16:15:02;12.25;;;7.70;;
77432;SDS011;66752;48.576;8.876;2023-02-28T16:17:31;10.98;;;7.75;;
77432;SDS011;66752;48.576;8.876;2023-02-28T16:19:58;11.32;;;8.43;;
77432;SDS011;66752;48.576;8.876;2023-02-28T16:22:25;12.45;;;8.35;;
77432;SDS011;66752;48.576;8.876;2023-02-28T16:24:51;12.07;;;8.15;;
77432;SDS011;66752;48.576;8.876;2023-02-28T16:29:43;13.68;;;9.07;;
77432;SDS011;66752;48.576;8.876;2023-02-28T16:32:10;11.68;;;8.10;;
77432;SDS011;66752;48.576;8.876;2023-02-28T16:34:37;14.05;;;8.25;;
77432;SDS011;66752;48.576;8.876;2023-02-28T16:37:04;13.05;;;7.95;;
77432;SDS011;66752;48.576;8.876;2023-02-28T16:39:30;16.75;;;9.55;;
77432;SDS011;66752;48.576;8.876;2023-02-28T16:41:56;12.23;;;8.18;;
77432;SDS011;66752;48.576;8.876;2023-02-28T16:44:32;14.43;;;8.00;;
77432;SDS011;66752;48.576;8.876;2023-02-28T16:47:02;13.85;;;8.73;;
77432;SDS011;66752;48.576;8.876;2023-02-28T16:49:29;12.90;;;8.50;;
77432;SDS011;66752;48.576;8.876;2023-02-28T16:51:55;12.75;;;8.05;;
77432;SDS011;66752;48.576;8.876;2023-02-28T16:54:21;13.73;;;8.52;;
77432;SDS011;66752;48.576;8.876;2023-02-28T16:56:47;12.60;;;8.73;;
77432;SDS011;66752;48.576;8.876;2023-02-28T16:59:14;10.55;;;7.22;;